Alps, New York
Current Conditions -  °F | °C
As of 11:07 AM on Friday 21 Nov 2014 (Local Time) from KALB Reporting Station
Broken Clouds Broken Clouds  
Wind Chill: -8°   Ceiling: 3700
Heat Index: -2°   Visibility: 10mi
Dew Point: -9°   Wind: 15mph
Humidity: 58%   Direction: 280°W
Pressure: 30.24"   Gusts: 24mph
Location:  42.6497°N, 73.5273°W
Report Text: KALB 211607Z 28013G21KT 10SM SCT028 BKN037 M02/M09 A3024 RMK AO2 VCSH N-E-SW T10171089
Loading
Personal Weather Stations






























Interactive Weather Map New forecast layout! Learn more

10-Day Weather Forecast

Advertisements
Track Severe Weather on mobile